Time;durP1;ratioP1;P1;durP2;ratioP2;P2;SDS_P1;SDS_P2;PMS_P1;PMS_P2;Temp;Humidity;BMP_temperature;BMP_pressure;BME280_temperature;BME280_humidity;BME280_pressure;Samples;Min_cycle;Max_cycle;Signal;HPM_P1;HPM_P2
2022/10/16 00:00:26;;;;;;;;;;;;;;;;;;1044252;28;2592;-54
2022/10/16 00:01:17;;;;;;;;;;;;;;;;;;1042223;28;2683;-57
2022/10/16 00:01:47;;;;;;;;;;;;;;;;;;1044546;28;2910;-53
2022/10/16 00:02:17;;;;;;;;;;;;;;;;;;1044490;28;2587;-55
2022/10/16 00:02:48;;;;;;;;;;;;;;;;;;1043526;28;2136;-54
2022/10/16 00:03:19;;;;;;;;;;;;;;;;;;1046537;28;3019;-54
2022/10/16 00:03:49;;;;;;;;;;;;;;;;;;1047898;28;1659;-56
2022/10/16 00:04:20;;;;;;;;;;;;;;;;;;1044828;28;2158;-53
2022/10/16 00:04:50;;;;;;;;;;;;;;;;;;1046262;28;3693;-55
2022/10/16 00:05:20;;;;;;;;;;;;;;;;;;1044456;28;2478;-54
2022/10/16 00:05:51;;;;;;;;;;;;;;;;;;1044513;28;2926;-56
2022/10/16 00:06:22;;;;;;;;;;;;;;;;;;1042413;28;2244;-57
2022/10/16 00:06:53;;;;;;;;;;;;;;;;;;1044756;28;1974;-55
2022/10/16 00:07:24;;;;;;;;;;;;;;;;;;1039535;28;2163;-55
2022/10/16 00:07:54;;;;;;;;;;;;;;;;;;1037366;28;2642;-55
2022/10/16 00:08:24;;;;;;;;;;;;;;;;;;1035451;28;3413;-54
2022/10/16 00:08:56;;;;;;;;;;;;;;;;;;1041516;28;2612;-54
2022/10/16 00:09:27;;;;;;;;;;;;;;;;;;1039093;28;2528;-53
2022/10/16 00:09:58;;;;;;;;;;;;;;;;;;1038259;28;2479;-56
2022/10/16 00:10:28;;;;;;;;;;;;;;;;;;1037788;28;2602;-52
2022/10/16 00:11:19;;;;;;;;;;;;;;;;;;1038715;28;2332;-57
2022/10/16 00:11:50;;;;;;;;;;;;;;;;;;1038050;28;2459;-54
2022/10/16 00:12:20;;;;;;;;;;;;;;;;;;1032137;28;2576;-53
2022/10/16 00:12:51;;;;;;;;;;;;;;;;;;1033621;28;2264;-55
2022/10/16 00:13:21;;;;;;;;;;;;;;;;;;1035202;28;1730;-55
2022/10/16 00:13:54;;;;;;;;;;;;;;;;;;1036928;28;2056;-56
2022/10/16 00:14:25;;;;;;;;;;;;;;;;;;1043684;28;2585;-56
2022/10/16 00:14:56;;;;;;;;;;;;;;;;;;1043445;28;2606;-56
2022/10/16 00:15:26;;;;;;;;;;;;;;;;;;1045431;28;2073;-54
2022/10/16 00:15:57;;;;;;;;;;;;;;;;;;1045768;28;2425;-57
2022/10/16 00:16:28;;;;;;;;;;;;;;;;;;1043865;28;1281;-55
2022/10/16 00:16:59;;;;;;;;;;;;;;;;;;1043234;28;2211;-58
2022/10/16 00:17:30;;;;;;;;;;;;;;;;;;1037358;28;2710;-53
2022/10/16 00:18:00;;;;;;;;;;;;;;;;;;1038336;28;2533;-52
2022/10/16 00:18:30;;;;;;;;;;;;;;;;;;1036854;28;2595;-54
2022/10/16 00:19:01;;;;;;;;;;;;;;;;;;1036335;28;2100;-56
2022/10/16 00:19:32;;;;;;;;;;;;;;;;;;1043558;28;2251;-54
2022/10/16 00:20:03;;;;;;;;;;;;;;;;;;1039728;28;2016;-50
2022/10/16 00:20:34;;;;;;;;;;;;;;;;;;1040490;28;2204;-54
2022/10/16 00:21:06;;;;;;;;;;;;;;;;;;1039210;28;2260;-54
2022/10/16 00:21:36;;;;;;;;;;;;;;;;;;1036674;28;3802;-54
2022/10/16 00:22:06;;;;;;;;;;;;;;;;;;1046383;28;1616;-55
2022/10/16 00:22:38;;;;;;;;;;;;;;;;;;1046485;28;1972;-57
2022/10/16 00:23:10;;;;;;;;;;;;;;;;;;1046418;28;2520;-57
2022/10/16 00:23:41;;;;;;;;;;;;;;;;;;1044162;28;2967;-55
2022/10/16 00:24:11;;;;;;;;;;;;;;;;;;1039392;28;2380;-57
2022/10/16 00:24:42;;;;;;;;;;;;;;;;;;1039395;28;2583;-53
2022/10/16 00:25:12;;;;;;;;;;;;;;;;;;1042658;28;2388;-50
2022/10/16 00:25:42;;;;;;;;;;;;;;;;;;1046489;28;2496;-55
2022/10/16 00:26:16;;;;;;;;;;;;;;;;;;1042819;28;1779;-54
2022/10/16 00:26:49;;;;;;;;;;;;;;;;;;1044582;28;2097;-53
2022/10/16 00:27:19;;;;;;;;;;;;;;;;;;1044353;28;2593;-53
2022/10/16 00:27:50;;;;;;;;;;;;;;;;;;1046105;28;2521;-58
2022/10/16 00:28:21;;;;;;;;;;;;;;;;;;1046290;28;2120;-55
2022/10/16 00:28:51;;;;;;;;;;;;;;;;;;1043755;28;2710;-55
2022/10/16 00:29:22;;;;;;;;;;;;;;;;;;1044820;28;2196;-56
2022/10/16 00:29:52;;;;;;;;;;;;;;;;;;1042557;28;2160;-56
2022/10/16 00:30:23;;;;;;;;;;;;;;;;;;1044602;28;2399;-59
2022/10/16 00:30:53;;;;;;;;;;;;;;;;;;1046021;28;3776;-56
2022/10/16 00:31:23;;;;;;;;;;;;;;;;;;1047023;28;1971;-56
2022/10/16 00:31:54;;;;;;;;;;;;;;;;;;1044021;28;2703;-58
2022/10/16 00:32:24;;;;;;;;;;;;;;;;;;1043774;28;2529;-55
2022/10/16 00:32:54;;;;;;;;;;;;;;;;;;1044115;28;2610;-55
2022/10/16 00:33:25;;;;;;;;;;;;;;;;;;1045188;28;2902;-56
2022/10/16 00:33:56;;;;;;;;;;;;;;;;;;1040499;28;2803;-53
2022/10/16 00:34:27;;;;;;;;;;;;;;;;;;1039801;28;2193;-56
2022/10/16 00:34:57;;;;;;;;;;;;;;;;;;1042258;28;2515;-55
2022/10/16 00:35:28;;;;;;;;;;;;;;;;;;1044675;28;2274;-52
2022/10/16 00:35:59;;;;;;;;;;;;;;;;;;1044000;28;3068;-52
2022/10/16 00:36:31;;;;;;;;;;;;;;;;;;1043837;28;2526;-56
2022/10/16 00:37:02;;;;;;;;;;;;;;;;;;1043970;28;2080;-53
2022/10/16 00:37:33;;;;;;;;;;;;;;;;;;1045739;28;2938;-54
2022/10/16 00:38:03;;;;;;;;;;;;;;;;;;1044322;28;1719;-55
2022/10/16 00:38:34;;;;;;;;;;;;;;;;;;1044470;28;2638;-55
2022/10/16 00:39:04;;;;;;;;;;;;;;;;;;1044755;28;2538;-54
2022/10/16 00:39:34;;;;;;;;;;;;;;;;;;1046634;28;2024;-58
2022/10/16 00:40:05;;;;;;;;;;;;;;;;;;1043689;28;2702;-58
2022/10/16 00:40:35;;;;;;;;;;;;;;;;;;1045826;28;2062;-55
2022/10/16 00:41:06;;;;;;;;;;;;;;;;;;1043864;28;2600;-54
2022/10/16 00:41:36;;;;;;;;;;;;;;;;;;1045313;28;2996;-52
2022/10/16 00:42:15;;;;;;;;;;;;;;;;;;1045211;28;2460;-56
2022/10/16 00:42:45;;;;;;;;;;;;;;;;;;1046488;28;2764;-56
2022/10/16 00:43:35;;;;;;;;;;;;;;;;;;1042998;28;2592;-55
2022/10/16 00:44:25;;;;;;;;;;;;;;;;;;1044076;28;2771;-49
2022/10/16 00:44:59;;;;;;;;;;;;;;;;;;1045973;28;1668;-56
2022/10/16 00:45:29;;;;;;;;;;;;;;;;;;1043832;28;2665;-55
2022/10/16 00:46:01;;;;;;;;;;;;;;;;;;1043724;28;2037;-53
2022/10/16 00:46:35;;;;;;;;;;;;;;;;;;1043476;28;2288;-56
2022/10/16 00:47:08;;;;;;;;;;;;;;;;;;1045566;28;1751;-56
2022/10/16 00:47:40;;;;;;;;;;;;;;;;;;1043020;28;2987;-54
2022/10/16 00:48:12;;;;;;;;;;;;;;;;;;1043877;28;1785;-54
2022/10/16 00:48:46;;;;;;;;;;;;;;;;;;1045274;28;2960;-56
2022/10/16 00:49:18;;;;;;;;;;;;;;;;;;1044211;28;2802;-57
2022/10/16 00:49:49;;;;;;;;;;;;;;;;;;1044175;28;2747;-55
2022/10/16 00:50:26;;;;;;;;;;;;;;;;;;1045929;28;2283;-56
2022/10/16 00:50:57;;;;;;;;;;;;;;;;;;1043176;28;2609;-54
2022/10/16 00:51:38;;;;;;;;;;;;;;;;;;1043990;28;2698;-56
2022/10/16 00:52:16;;;;;;;;;;;;;;;;;;1048166;28;2948;-51
2022/10/16 00:52:47;;;;;;;;;;;;;;;;;;1050004;28;2740;-53
2022/10/16 00:53:18;;;;;;;;;;;;;;;;;;1049181;28;2491;-51
2022/10/16 00:53:49;;;;;;;;;;;;;;;;;;1048020;28;2670;-56
2022/10/16 00:54:21;;;;;;;;;;;;;;;;;;1049920;28;2035;-56
2022/10/16 00:54:53;;;;;;;;;;;;;;;;;;1043325;28;2573;-54
2022/10/16 00:55:24;;;;;;;;;;;;;;;;;;1043213;28;1165;-51
2022/10/16 00:55:55;;;;;;;;;;;;;;;;;;1039704;28;2485;-54
2022/10/16 00:56:25;;;;;;;;;;;;;;;;;;1041741;28;3160;-55
2022/10/16 00:56:57;;;;;;;;;;;;;;;;;;1049986;28;2723;-53
2022/10/16 00:57:28;;;;;;;;;;;;;;;;;;1050774;28;1747;-55
2022/10/16 00:57:58;;;;;;;;;;;;;;;;;;1047676;28;2474;-53
2022/10/16 00:58:29;;;;;;;;;;;;;;;;;;1049512;28;1841;-57
2022/10/16 00:59:01;;;;;;;;;;;;;;;;;;1050944;28;2005;-57
2022/10/16 00:59:41;;;;;;;;;;;;;;;;;;1049557;28;1995;-56
2022/10/16 01:00:14;;;;;;;;;;;;;;;;;;1038869;28;2669;-55
2022/10/16 01:00:45;;;;;;;;;;;;;;;;;;1037944;28;2662;-54
2022/10/16 01:01:15;;;;;;;;;;;;;;;;;;1037164;28;2220;-56
2022/10/16 01:01:46;;;;;;;;;;;;;;;;;;1033442;28;2510;-53
2022/10/16 01:02:17;;;;;;;;;;;;;;;;;;1041449;28;2558;-56
2022/10/16 01:02:55;;;;;;;;;;;;;;;;;;1045441;28;2661;-54
2022/10/16 01:03:34;;;;;;;;;;;;;;;;;;1048354;28;2831;-54
2022/10/16 01:04:05;;;;;;;;;;;;;;;;;;1050907;28;1699;-54
2022/10/16 01:04:44;;;;;;;;;;;;;;;;;;1049537;28;2091;-56
2022/10/16 01:05:14;;;;;;;;;;;;;;;;;;1047155;28;1743;-55
2022/10/16 01:05:50;;;;;;;;;;;;;;;;;;1049553;28;2452;-55
2022/10/16 01:06:24;;;;;;;;;;;;;;;;;;1048102;28;2707;-56
2022/10/16 01:07:13;;;;;;;;;;;;;;;;;;1047399;28;1832;-55
2022/10/16 01:07:43;;;;;;;;;;;;;;;;;;1047477;28;2137;-54
2022/10/16 01:08:21;;;;;;;;;;;;;;;;;;1048047;28;2449;-58
2022/10/16 01:08:55;;;;;;;;;;;;;;;;;;1046886;28;2629;-57
2022/10/16 01:09:39;;;;;;;;;;;;;;;;;;1048938;28;1699;-54
2022/10/16 01:10:15;;;;;;;;;;;;;;;;;;1048344;28;2421;-54
2022/10/16 01:10:53;;;;;;;;;;;;;;;;;;1046977;28;1996;-55
2022/10/16 01:11:26;;;;;;;;;;;;;;;;;;1046072;28;2473;-56
2022/10/16 01:12:04;;;;;;;;;;;;;;;;;;1048487;28;2804;-53
2022/10/16 01:12:53;;;;;;;;;;;;;;;;;;1048807;28;3052;-54
2022/10/16 01:13:24;;;;;;;;;;;;;;;;;;1041675;28;2832;-58
2022/10/16 01:13:55;;;;;;;;;;;;;;;;;;1044691;28;3927;-56
2022/10/16 01:14:40;;;;;;;;;;;;;;;;;;1045601;28;2504;-53
2022/10/16 01:15:19;;;;;;;;;;;;;;;;;;1047664;28;2103;-54
2022/10/16 01:15:55;;;;;;;;;;;;;;;;;;1051874;28;1973;-56
2022/10/16 01:16:28;;;;;;;;;;;;;;;;;;1048501;28;2158;-55
2022/10/16 01:17:01;;;;;;;;;;;;;;;;;;1049586;28;2426;-54
2022/10/16 01:17:36;;;;;;;;;;;;;;;;;;1050881;28;2042;-52
2022/10/16 01:18:12;;;;;;;;;;;;;;;;;;1046951;28;2578;-56
2022/10/16 01:18:45;;;;;;;;;;;;;;;;;;1048453;28;2369;-54
2022/10/16 01:19:40;;;;;;;;;;;;;;;;;;1051549;28;1613;-55
2022/10/16 01:20:29;;;;;;;;;;;;;;;;;;1051253;28;2102;-54
2022/10/16 01:21:00;;;;;;;;;;;;;;;;;;1049927;28;1886;-54
2022/10/16 01:21:41;;;;;;;;;;;;;;;;;;1049928;28;2614;-56
2022/10/16 01:22:13;;;;;;;;;;;;;;;;;;1048753;28;2635;-54
2022/10/16 01:22:48;;;;;;;;;;;;;;;;;;1048219;28;1645;-52
2022/10/16 01:23:23;;;;;;;;;;;;;;;;;;1049004;28;1952;-54
2022/10/16 01:24:06;;;;;;;;;;;;;;;;;;1049980;28;2771;-53
2022/10/16 01:24:39;;;;;;;;;;;;;;;;;;1045027;28;2592;-53
2022/10/16 01:25:15;;;;;;;;;;;;;;;;;;1041072;28;2871;-55
2022/10/16 01:25:53;;;;;;;;;;;;;;;;;;1043067;28;1996;-55
2022/10/16 01:26:30;;;;;;;;;;;;;;;;;;1045930;28;1599;-56
2022/10/16 01:27:11;;;;;;;;;;;;;;;;;;1048700;28;2456;-55
2022/10/16 01:27:45;;;;;;;;;;;;;;;;;;1055111;28;2884;-55
2022/10/16 01:28:16;;;;;;;;;;;;;;;;;;1054373;28;2370;-55
2022/10/16 01:28:53;;;;;;;;;;;;;;;;;;1054854;28;1877;-55
2022/10/16 01:29:27;;;;;;;;;;;;;;;;;;1052806;28;3044;-54
2022/10/16 01:30:01;;;;;;;;;;;;;;;;;;1051360;28;1856;-55
2022/10/16 01:30:33;;;;;;;;;;;;;;;;;;1050037;28;3139;-56
2022/10/16 01:31:04;;;;;;;;;;;;;;;;;;1048208;28;2469;-53
2022/10/16 01:31:37;;;;;;;;;;;;;;;;;;1039221;28;1850;-55
2022/10/16 01:32:26;;;;;;;;;;;;;;;;;;1040764;28;2127;-56
2022/10/16 01:32:58;;;;;;;;;;;;;;;;;;1040030;28;2130;-55
2022/10/16 01:33:49;;;;;;;;;;;;;;;;;;1046082;28;2603;-56
2022/10/16 01:34:32;;;;;;;;;;;;;;;;;;1036544;28;1621;-54
2022/10/16 01:35:05;;;;;;;;;;;;;;;;;;1044165;28;1810;-56
2022/10/16 01:35:55;;;;;;;;;;;;;;;;;;1042000;28;3035;-58
2022/10/16 01:36:27;;;;;;;;;;;;;;;;;;1046652;28;1635;-58
2022/10/16 01:37:04;;;;;;;;;;;;;;;;;;1048050;28;2188;-57
2022/10/16 01:37:38;;;;;;;;;;;;;;;;;;1049623;28;2755;-55
2022/10/16 01:38:17;;;;;;;;;;;;;;;;;;1048226;28;2565;-55
2022/10/16 01:38:49;;;;;;;;;;;;;;;;;;1050325;28;2444;-56
2022/10/16 01:39:21;;;;;;;;;;;;;;;;;;1047875;28;2554;-53
2022/10/16 01:39:55;;;;;;;;;;;;;;;;;;1047788;28;2172;-53
2022/10/16 01:40:26;;;;;;;;;;;;;;;;;;1048478;28;2523;-55
2022/10/16 01:41:02;;;;;;;;;;;;;;;;;;1047624;28;1399;-53
2022/10/16 01:41:34;;;;;;;;;;;;;;;;;;1049694;28;3094;-55
2022/10/16 01:42:11;;;;;;;;;;;;;;;;;;1049894;28;1749;-54
2022/10/16 01:42:47;;;;;;;;;;;;;;;;;;1049668;28;2255;-57
2022/10/16 01:43:20;;;;;;;;;;;;;;;;;;1047846;28;2503;-56
2022/10/16 01:44:11;;;;;;;;;;;;;;;;;;1043648;28;2683;-55
2022/10/16 01:44:42;;;;;;;;;;;;;;;;;;1044958;28;1882;-56
2022/10/16 01:45:14;;;;;;;;;;;;;;;;;;1045898;28;2481;-57
2022/10/16 01:45:45;;;;;;;;;;;;;;;;;;1046064;28;2501;-52
2022/10/16 01:46:18;;;;;;;;;;;;;;;;;;1044162;28;1898;-53
2022/10/16 01:46:51;;;;;;;;;;;;;;;;;;1037949;28;2113;-54
2022/10/16 01:47:23;;;;;;;;;;;;;;;;;;1041124;28;3083;-57
2022/10/16 01:47:54;;;;;;;;;;;;;;;;;;1040090;28;2013;-54
2022/10/16 01:48:24;;;;;;;;;;;;;;;;;;1048843;28;1862;-51
2022/10/16 01:48:55;;;;;;;;;;;;;;;;;;1047393;28;2127;-53
2022/10/16 01:49:27;;;;;;;;;;;;;;;;;;1049814;28;3356;-56
2022/10/16 01:49:58;;;;;;;;;;;;;;;;;;1047495;28;3036;-56
2022/10/16 01:50:29;;;;;;;;;;;;;;;;;;1050834;28;2568;-57
2022/10/16 01:51:07;;;;;;;;;;;;;;;;;;1048854;28;4084;-56
2022/10/16 01:51:43;;;;;;;;;;;;;;;;;;1047811;28;3068;-57
2022/10/16 01:52:23;;;;;;;;;;;;;;;;;;1053738;28;2511;-51
2022/10/16 01:53:01;;;;;;;;;;;;;;;;;;1053283;28;1705;-56
2022/10/16 01:53:32;;;;;;;;;;;;;;;;;;1051601;28;2644;-55
2022/10/16 01:54:04;;;;;;;;;;;;;;;;;;1051980;28;2477;-56
2022/10/16 01:54:37;;;;;;;;;;;;;;;;;;1053663;28;2369;-56
2022/10/16 01:55:09;;;;;;;;;;;;;;;;;;1052614;28;1724;-57
2022/10/16 01:55:44;;;;;;;;;;;;;;;;;;1051243;28;1969;-55
2022/10/16 01:56:15;;;;;;;;;;;;;;;;;;1053453;28;2050;-56
2022/10/16 01:56:46;;;;;;;;;;;;;;;;;;1053804;28;2190;-53
2022/10/16 01:57:19;;;;;;;;;;;;;;;;;;1047571;28;2464;-55
2022/10/16 01:57:51;;;;;;;;;;;;;;;;;;1043729;28;2158;-54
2022/10/16 01:58:22;;;;;;;;;;;;;;;;;;1047229;28;1670;-54
2022/10/16 01:58:59;;;;;;;;;;;;;;;;;;1041054;28;1617;-56
2022/10/16 01:59:31;;;;;;;;;;;;;;;;;;1042640;28;1413;-51
2022/10/16 02:00:05;;;;;;;;;;;;;;;;;;1046743;28;3048;-53
2022/10/16 02:00:37;;;;;;;;;;;;;;;;;;1050937;28;2716;-55
2022/10/16 02:01:08;;;;;;;;;;;;;;;;;;1051530;28;2036;-55
2022/10/16 02:01:42;;;;;;;;;;;;;;;;;;1048451;28;2481;-54
2022/10/16 02:02:15;;;;;;;;;;;;;;;;;;1037748;28;2543;-55
2022/10/16 02:02:48;;;;;;;;;;;;;;;;;;1034413;28;2459;-53
2022/10/16 02:03:19;;;;;;;;;;;;;;;;;;1031025;28;2652;-56
2022/10/16 02:03:51;;;;;;;;;;;;;;;;;;1032019;28;2908;-54
2022/10/16 02:04:26;;;;;;;;;;;;;;;;;;1035757;28;1758;-55
2022/10/16 02:04:59;;;;;;;;;;;;;;;;;;1042910;28;2666;-55
2022/10/16 02:05:36;;;;;;;;;;;;;;;;;;1048607;28;2824;-55
2022/10/16 02:06:07;;;;;;;;;;;;;;;;;;1049702;28;2188;-57
2022/10/16 02:06:38;;;;;;;;;;;;;;;;;;1045042;28;2520;-52
2022/10/16 02:07:08;;;;;;;;;;;;;;;;;;1044955;28;1586;-54
2022/10/16 02:07:38;;;;;;;;;;;;;;;;;;1043759;28;2464;-56
2022/10/16 02:08:09;;;;;;;;;;;;;;;;;;1044977;28;2567;-56
2022/10/16 02:08:46;;;;;;;;;;;;;;;;;;1052633;28;2763;-56
2022/10/16 02:09:16;;;;;;;;;;;;;;;;;;1052912;28;2485;-52
2022/10/16 02:09:47;;;;;;;;;;;;;;;;;;1050519;28;2473;-54
2022/10/16 02:10:17;;;;;;;;;;;;;;;;;;1050533;28;1695;-56
2022/10/16 02:10:48;;;;;;;;;;;;;;;;;;1050445;28;1909;-56
2022/10/16 02:11:18;;;;;;;;;;;;;;;;;;1051556;28;2101;-55
2022/10/16 02:11:49;;;;;;;;;;;;;;;;;;1052037;28;3030;-54
2022/10/16 02:12:26;;;;;;;;;;;;;;;;;;1053564;28;2576;-57
2022/10/16 02:12:59;;;;;;;;;;;;;;;;;;1048051;28;2498;-57
2022/10/16 02:13:45;;;;;;;;;;;;;;;;;;1048759;28;2550;-56
2022/10/16 02:14:16;;;;;;;;;;;;;;;;;;1047152;28;3181;-53
2022/10/16 02:14:46;;;;;;;;;;;;;;;;;;1046165;28;2271;-54
2022/10/16 02:15:17;;;;;;;;;;;;;;;;;;1049597;28;2717;-55
2022/10/16 02:15:47;;;;;;;;;;;;;;;;;;1048044;28;2168;-54
2022/10/16 02:16:18;;;;;;;;;;;;;;;;;;1047407;28;1901;-52
2022/10/16 02:16:49;;;;;;;;;;;;;;;;;;1053618;28;2461;-54
2022/10/16 02:17:20;;;;;;;;;;;;;;;;;;1053564;28;2098;-54
2022/10/16 02:17:51;;;;;;;;;;;;;;;;;;1042027;28;2738;-56
2022/10/16 02:18:21;;;;;;;;;;;;;;;;;;1044858;28;2589;-54
2022/10/16 02:18:52;;;;;;;;;;;;;;;;;;1045964;28;2645;-52
2022/10/16 02:19:22;;;;;;;;;;;;;;;;;;1043449;28;2433;-52
2022/10/16 02:19:54;;;;;;;;;;;;;;;;;;1054621;28;2263;-56
2022/10/16 02:20:27;;;;;;;;;;;;;;;;;;1052161;28;1935;-51
2022/10/16 02:21:17;;;;;;;;;;;;;;;;;;1052375;28;1656;-55
2022/10/16 02:21:55;;;;;;;;;;;;;;;;;;1035946;28;2292;-52
2022/10/16 02:22:26;;;;;;;;;;;;;;;;;;1052622;28;2555;-56
2022/10/16 02:23:01;;;;;;;;;;;;;;;;;;1049249;28;2317;-54
2022/10/16 02:23:42;;;;;;;;;;;;;;;;;;1049439;28;2530;-53
2022/10/16 02:24:18;;;;;;;;;;;;;;;;;;1048318;28;3064;-57
2022/10/16 02:25:07;;;;;;;;;;;;;;;;;;1050957;28;2509;-55
2022/10/16 02:25:39;;;;;;;;;;;;;;;;;;1054043;28;2012;-56
2022/10/16 02:26:13;;;;;;;;;;;;;;;;;;1053536;28;2175;-53
2022/10/16 02:26:49;;;;;;;;;;;;;;;;;;1052701;28;2211;-57
2022/10/16 02:27:23;;;;;;;;;;;;;;;;;;1045965;28;2513;-53
2022/10/16 02:27:56;;;;;;;;;;;;;;;;;;1046251;28;2520;-58
2022/10/16 02:28:46;;;;;;;;;;;;;;;;;;1037617;28;2383;-56
2022/10/16 02:29:20;;;;;;;;;;;;;;;;;;1043012;28;2490;-53
2022/10/16 02:29:58;;;;;;;;;;;;;;;;;;1046967;28;1688;-57
2022/10/16 02:30:55;;;;;;;;;;;;;;;;;;1055043;28;1961;-53
2022/10/16 02:31:27;;;;;;;;;;;;;;;;;;1048787;28;2647;-56
2022/10/16 02:32:00;;;;;;;;;;;;;;;;;;1051507;28;2241;-55
2022/10/16 02:32:32;;;;;;;;;;;;;;;;;;1051145;28;1865;-55
2022/10/16 02:33:04;;;;;;;;;;;;;;;;;;1054607;28;1632;-55
2022/10/16 02:33:37;;;;;;;;;;;;;;;;;;1048685;28;2484;-53
2022/10/16 02:34:08;;;;;;;;;;;;;;;;;;1043994;28;2559;-57
2022/10/16 02:34:40;;;;;;;;;;;;;;;;;;1043697;28;2890;-53
2022/10/16 02:35:10;;;;;;;;;;;;;;;;;;1046014;28;2743;-56
2022/10/16 02:35:41;;;;;;;;;;;;;;;;;;1048249;28;2678;-54
2022/10/16 02:36:12;;;;;;;;;;;;;;;;;;1053989;28;2701;-56
2022/10/16 02:36:43;;;;;;;;;;;;;;;;;;1052018;28;2455;-57
2022/10/16 02:37:13;;;;;;;;;;;;;;;;;;1052093;28;3400;-54
2022/10/16 02:37:44;;;;;;;;;;;;;;;;;;1052134;28;1733;-52
2022/10/16 02:38:16;;;;;;;;;;;;;;;;;;1051820;28;2382;-55
2022/10/16 02:38:46;;;;;;;;;;;;;;;;;;1053502;28;2557;-56
2022/10/16 02:39:17;;;;;;;;;;;;;;;;;;1052559;28;2791;-54
2022/10/16 02:39:47;;;;;;;;;;;;;;;;;;1052742;28;2308;-55
2022/10/16 02:40:18;;;;;;;;;;;;;;;;;;1052158;28;2375;-55
2022/10/16 02:40:49;;;;;;;;;;;;;;;;;;1047861;28;2494;-55
2022/10/16 02:41:21;;;;;;;;;;;;;;;;;;1047949;28;2371;-57
2022/10/16 02:41:51;;;;;;;;;;;;;;;;;;1051471;28;1951;-52
2022/10/16 02:42:27;;;;;;;;;;;;;;;;;;1048416;28;2126;-53
2022/10/16 02:43:02;;;;;;;;;;;;;;;;;;1044085;28;2481;-51
2022/10/16 02:43:33;;;;;;;;;;;;;;;;;;1044881;28;2535;-52
2022/10/16 02:44:03;;;;;;;;;;;;;;;;;;1045184;28;2655;-55
2022/10/16 02:44:34;;;;;;;;;;;;;;;;;;1044226;28;1915;-52
2022/10/16 02:45:04;;;;;;;;;;;;;;;;;;1054338;28;2583;-52
2022/10/16 02:45:35;;;;;;;;;;;;;;;;;;1051471;28;1902;-54
2022/10/16 02:46:05;;;;;;;;;;;;;;;;;;1053365;28;2024;-52
2022/10/16 02:46:36;;;;;;;;;;;;;;;;;;1051990;28;2083;-57
2022/10/16 02:47:06;;;;;;;;;;;;;;;;;;1054850;28;3031;-52
2022/10/16 02:47:37;;;;;;;;;;;;;;;;;;1049131;28;2248;-53
2022/10/16 02:48:08;;;;;;;;;;;;;;;;;;1047407;28;1910;-54
2022/10/16 02:48:39;;;;;;;;;;;;;;;;;;1046536;28;2510;-57
2022/10/16 02:49:09;;;;;;;;;;;;;;;;;;1049270;28;2491;-52
2022/10/16 02:49:40;;;;;;;;;;;;;;;;;;1051543;28;2490;-56
2022/10/16 02:50:10;;;;;;;;;;;;;;;;;;1056443;28;2822;-54
2022/10/16 02:50:41;;;;;;;;;;;;;;;;;;1056588;28;1917;-53
2022/10/16 02:51:11;;;;;;;;;;;;;;;;;;1054827;28;1660;-53
2022/10/16 02:51:49;;;;;;;;;;;;;;;;;;1053953;28;2482;-54
2022/10/16 02:52:26;;;;;;;;;;;;;;;;;;1052236;28;2920;-52
2022/10/16 02:53:03;;;;;;;;;;;;;;;;;;1053360;28;2581;-55
2022/10/16 02:53:33;;;;;;;;;;;;;;;;;;1053354;28;2602;-54
2022/10/16 02:54:04;;;;;;;;;;;;;;;;;;1053363;28;2323;-56
2022/10/16 02:54:34;;;;;;;;;;;;;;;;;;1043444;28;2552;-55
2022/10/16 02:55:05;;;;;;;;;;;;;;;;;;1045039;28;2600;-53
2022/10/16 02:55:35;;;;;;;;;;;;;;;;;;1042558;28;2032;-53
2022/10/16 02:56:06;;;;;;;;;;;;;;;;;;1043943;28;2056;-54
2022/10/16 02:56:37;;;;;;;;;;;;;;;;;;1050539;28;2369;-57
2022/10/16 02:57:07;;;;;;;;;;;;;;;;;;1052045;28;1715;-52
2022/10/16 02:57:40;;;;;;;;;;;;;;;;;;1056047;28;1748;-53
2022/10/16 02:58:10;;;;;;;;;;;;;;;;;;1050833;28;3033;-55
2022/10/16 02:58:41;;;;;;;;;;;;;;;;;;1051314;28;1819;-53
2022/10/16 02:59:11;;;;;;;;;;;;;;;;;;1051252;28;1598;-53
2022/10/16 02:59:42;;;;;;;;;;;;;;;;;;1046989;28;1756;-57
2022/10/16 03:00:14;;;;;;;;;;;;;;;;;;1049589;28;2327;-55
2022/10/16 03:00:44;;;;;;;;;;;;;;;;;;1048250;28;2250;-53
2022/10/16 03:01:21;;;;;;;;;;;;;;;;;;1049706;28;2511;-54
2022/10/16 03:01:51;;;;;;;;;;;;;;;;;;1049919;28;2812;-56
2022/10/16 03:02:22;;;;;;;;;;;;;;;;;;1054571;28;2000;-56
2022/10/16 03:02:52;;;;;;;;;;;;;;;;;;1053104;28;1857;-53
2022/10/16 03:03:23;;;;;;;;;;;;;;;;;;1047500;28;1707;-55
2022/10/16 03:03:54;;;;;;;;;;;;;;;;;;1045119;28;2859;-55
2022/10/16 03:04:24;;;;;;;;;;;;;;;;;;1043526;28;2645;-53
2022/10/16 03:04:55;;;;;;;;;;;;;;;;;;1043715;28;2551;-53
2022/10/16 03:05:25;;;;;;;;;;;;;;;;;;1054517;28;2517;-54
2022/10/16 03:05:59;;;;;;;;;;;;;;;;;;1048595;28;2565;-53
2022/10/16 03:06:30;;;;;;;;;;;;;;;;;;1048627;28;2355;-53
2022/10/16 03:07:00;;;;;;;;;;;;;;;;;;1045921;28;2653;-55
2022/10/16 03:07:30;;;;;;;;;;;;;;;;;;1043116;28;2653;-52
2022/10/16 03:08:01;;;;;;;;;;;;;;;;;;1048017;28;2817;-54
2022/10/16 03:08:31;;;;;;;;;;;;;;;;;;1044673;28;2102;-55
2022/10/16 03:09:04;;;;;;;;;;;;;;;;;;1049814;28;1954;-53
2022/10/16 03:09:35;;;;;;;;;;;;;;;;;;1054685;28;2246;-54
2022/10/16 03:10:06;;;;;;;;;;;;;;;;;;1054398;28;2732;-54
2022/10/16 03:10:37;;;;;;;;;;;;;;;;;;1053080;28;2665;-54
2022/10/16 03:11:08;;;;;;;;;;;;;;;;;;1050472;28;2524;-54
2022/10/16 03:11:38;;;;;;;;;;;;;;;;;;1047265;28;2054;-51
2022/10/16 03:12:09;;;;;;;;;;;;;;;;;;1047889;28;1544;-56
2022/10/16 03:12:39;;;;;;;;;;;;;;;;;;1045638;28;2244;-56
2022/10/16 03:13:10;;;;;;;;;;;;;;;;;;1051966;28;1699;-57
2022/10/16 03:13:40;;;;;;;;;;;;;;;;;;1050803;28;1858;-52
2022/10/16 03:14:11;;;;;;;;;;;;;;;;;;1047741;28;2050;-57
2022/10/16 03:14:41;;;;;;;;;;;;;;;;;;1051235;28;1680;-55
2022/10/16 03:15:11;;;;;;;;;;;;;;;;;;1051548;28;1832;-51
2022/10/16 03:15:42;;;;;;;;;;;;;;;;;;1055573;28;2012;-53
2022/10/16 03:16:13;;;;;;;;;;;;;;;;;;1051660;28;1674;-52
2022/10/16 03:16:43;;;;;;;;;;;;;;;;;;1053241;28;1573;-52
2022/10/16 03:17:16;;;;;;;;;;;;;;;;;;1055312;28;2101;-53
2022/10/16 03:17:46;;;;;;;;;;;;;;;;;;1054216;28;2234;-54
2022/10/16 03:18:17;;;;;;;;;;;;;;;;;;1055882;28;1737;-53
2022/10/16 03:18:49;;;;;;;;;;;;;;;;;;1056404;28;2023;-54
2022/10/16 03:19:20;;;;;;;;;;;;;;;;;;1055327;28;1894;-55
2022/10/16 03:19:50;;;;;;;;;;;;;;;;;;1049275;28;1802;-56
2022/10/16 03:20:21;;;;;;;;;;;;;;;;;;1045979;28;1369;-51
2022/10/16 03:20:52;;;;;;;;;;;;;;;;;;1041643;28;2408;-56
2022/10/16 03:21:23;;;;;;;;;;;;;;;;;;1042280;28;2494;-53
2022/10/16 03:21:53;;;;;;;;;;;;;;;;;;1045282;28;2464;-54
2022/10/16 03:22:23;;;;;;;;;;;;;;;;;;1045140;28;2346;-55
2022/10/16 03:22:53;;;;;;;;;;;;;;;;;;1052453;28;2337;-55
2022/10/16 03:23:24;;;;;;;;;;;;;;;;;;1051708;28;1819;-52
2022/10/16 03:23:54;;;;;;;;;;;;;;;;;;1052100;28;2656;-54
2022/10/16 03:24:24;;;;;;;;;;;;;;;;;;1054130;28;2922;-56
2022/10/16 03:24:55;;;;;;;;;;;;;;;;;;1052355;28;1724;-54
2022/10/16 03:25:26;;;;;;;;;;;;;;;;;;1047865;28;2054;-53
2022/10/16 03:25:56;;;;;;;;;;;;;;;;;;1048471;28;2003;-55
2022/10/16 03:26:26;;;;;;;;;;;;;;;;;;1049082;28;1666;-52
2022/10/16 03:26:57;;;;;;;;;;;;;;;;;;1047496;28;1710;-54
2022/10/16 03:27:27;;;;;;;;;;;;;;;;;;1052285;28;2560;-56
2022/10/16 03:27:58;;;;;;;;;;;;;;;;;;1051659;28;1697;-54
2022/10/16 03:28:28;;;;;;;;;;;;;;;;;;1053195;28;2639;-52
2022/10/16 03:28:59;;;;;;;;;;;;;;;;;;1050355;28;2597;-56
2022/10/16 03:29:29;;;;;;;;;;;;;;;;;;1049957;28;2872;-53
2022/10/16 03:30:00;;;;;;;;;;;;;;;;;;1047963;28;1692;-56
2022/10/16 03:30:30;;;;;;;;;;;;;;;;;;1043989;28;2130;-53
2022/10/16 03:31:00;;;;;;;;;;;;;;;;;;1049534;28;2593;-55
2022/10/16 03:31:31;;;;;;;;;;;;;;;;;;1049297;28;2559;-54
2022/10/16 03:32:01;;;;;;;;;;;;;;;;;;1048266;28;2114;-54
2022/10/16 03:32:32;;;;;;;;;;;;;;;;;;1048955;28;2400;-53
2022/10/16 03:33:02;;;;;;;;;;;;;;;;;;1047985;28;2351;-56
2022/10/16 03:33:32;;;;;;;;;;;;;;;;;;1049147;28;2279;-54
2022/10/16 03:34:03;;;;;;;;;;;;;;;;;;1047885;28;2566;-57
2022/10/16 03:34:33;;;;;;;;;;;;;;;;;;1054972;28;2308;-57
2022/10/16 03:35:04;;;;;;;;;;;;;;;;;;1054072;28;2786;-56
2022/10/16 03:35:35;;;;;;;;;;;;;;;;;;1052254;28;1576;-58
2022/10/16 03:36:06;;;;;;;;;;;;;;;;;;1046077;28;1784;-54
2022/10/16 03:36:36;;;;;;;;;;;;;;;;;;1046082;28;3027;-54
2022/10/16 03:37:07;;;;;;;;;;;;;;;;;;1045585;28;2567;-56
2022/10/16 03:37:38;;;;;;;;;;;;;;;;;;1047613;28;2460;-52
2022/10/16 03:38:09;;;;;;;;;;;;;;;;;;1049581;28;2236;-56
2022/10/16 03:38:39;;;;;;;;;;;;;;;;;;1047514;28;2554;-55
2022/10/16 03:39:09;;;;;;;;;;;;;;;;;;1048083;28;2642;-51
2022/10/16 03:39:40;;;;;;;;;;;;;;;;;;1048738;28;1882;-53
2022/10/16 03:40:10;;;;;;;;;;;;;;;;;;1051667;28;1525;-55
2022/10/16 03:40:41;;;;;;;;;;;;;;;;;;1051788;28;1684;-54
2022/10/16 03:41:11;;;;;;;;;;;;;;;;;;1053830;28;2541;-54
2022/10/16 03:41:41;;;;;;;;;;;;;;;;;;1054388;28;2562;-52
2022/10/16 03:42:12;;;;;;;;;;;;;;;;;;1054771;28;2082;-57
2022/10/16 03:42:43;;;;;;;;;;;;;;;;;;1051927;28;2502;-52
2022/10/16 03:43:13;;;;;;;;;;;;;;;;;;1052436;28;2019;-54
2022/10/16 03:43:43;;;;;;;;;;;;;;;;;;1051300;28;1571;-56
2022/10/16 03:44:14;;;;;;;;;;;;;;;;;;1053064;28;2497;-51
2022/10/16 03:44:45;;;;;;;;;;;;;;;;;;1055373;28;1749;-52
2022/10/16 03:45:15;;;;;;;;;;;;;;;;;;1056655;28;2024;-52
2022/10/16 03:45:46;;;;;;;;;;;;;;;;;;1053408;28;2567;-55
2022/10/16 03:46:16;;;;;;;;;;;;;;;;;;1053001;28;1734;-55
2022/10/16 03:46:46;;;;;;;;;;;;;;;;;;1051142;28;2008;-54
2022/10/16 03:47:20;;;;;;;;;;;;;;;;;;1052601;28;1685;-52
2022/10/16 03:47:50;;;;;;;;;;;;;;;;;;1051499;28;2116;-54